createdAt,value
2018-07-12T00:01:55.404Z,31.00
2018-07-12T00:04:22.627Z,30.53
2018-07-12T00:06:49.834Z,31.87
2018-07-12T00:09:17.111Z,33.13
2018-07-12T00:11:44.363Z,32.83
2018-07-12T00:14:11.580Z,31.73
2018-07-12T00:16:38.775Z,31.40
2018-07-12T00:19:05.996Z,31.70
2018-07-12T00:21:33.356Z,30.77
2018-07-12T00:24:00.588Z,30.43
2018-07-12T00:26:27.828Z,31.53
2018-07-12T00:28:55.050Z,32.10
2018-07-12T00:31:22.256Z,29.90
2018-07-12T00:33:49.546Z,34.27
2018-07-12T00:36:16.760Z,33.33
2018-07-12T00:38:44.132Z,33.23
2018-07-12T00:41:11.363Z,34.73
2018-07-12T00:43:38.594Z,33.87
2018-07-12T00:46:05.815Z,32.27
2018-07-12T00:48:33.044Z,35.17
2018-07-12T00:51:00.375Z,35.33
2018-07-12T00:53:28.051Z,36.80
2018-07-12T00:55:55.282Z,34.87
2018-07-12T00:58:22.759Z,33.73
2018-07-12T01:00:49.991Z,33.53
2018-07-12T01:03:17.266Z,36.30
2018-07-12T01:05:44.845Z,36.50
2018-07-12T01:08:12.402Z,37.67
2018-07-12T01:10:39.677Z,33.63
2018-07-12T01:13:07.355Z,34.20
2018-07-12T01:15:34.617Z,33.47
2018-07-12T01:18:01.852Z,35.27
2018-07-12T01:20:29.107Z,37.73
2018-07-12T01:22:56.692Z,38.40
2018-07-12T01:25:24.195Z,38.77
2018-07-12T01:27:51.658Z,40.17
2018-07-12T01:30:18.941Z,41.23
2018-07-12T01:32:46.151Z,43.30
2018-07-12T01:35:13.672Z,40.20
2018-07-12T01:37:41.755Z,40.07
2018-07-12T01:40:09.796Z,38.10
2018-07-12T01:42:37.024Z,38.27
2018-07-12T01:45:04.496Z,41.37
2018-07-12T01:47:31.745Z,41.33
2018-07-12T01:49:58.987Z,39.93
2018-07-12T01:52:26.253Z,40.23
2018-07-12T01:54:53.449Z,37.93
2018-07-12T01:57:20.686Z,39.23
2018-07-12T01:59:47.930Z,38.93
2018-07-12T02:02:15.179Z,37.47
2018-07-12T02:04:42.382Z,37.03
2018-07-12T02:07:09.650Z,33.00
2018-07-12T02:09:36.871Z,29.07
2018-07-12T02:12:04.091Z,30.67
2018-07-12T02:14:31.395Z,30.60
2018-07-12T02:16:58.622Z,34.13
2018-07-12T02:19:25.798Z,35.90
2018-07-12T02:21:53.077Z,38.00
2018-07-12T02:24:20.930Z,38.50
2018-07-12T02:26:48.131Z,37.53
2018-07-12T02:29:15.359Z,38.73
2018-07-12T02:31:42.589Z,37.10
2018-07-12T02:34:09.840Z,39.10
2018-07-12T02:36:37.036Z,38.53
2018-07-12T02:39:04.784Z,36.30
2018-07-12T02:41:32.047Z,39.53
2018-07-12T02:43:59.720Z,36.83
2018-07-12T02:46:26.931Z,36.97
2018-07-12T02:48:54.174Z,37.27
2018-07-12T02:51:21.536Z,38.33
2018-07-12T02:53:48.763Z,39.43
2018-07-12T02:56:16.013Z,39.63
2018-07-12T02:58:43.250Z,38.70
2018-07-12T03:01:11.913Z,38.33
2018-07-12T03:03:39.132Z,38.63
2018-07-12T03:06:06.368Z,34.93
2018-07-12T03:08:33.639Z,38.30
2018-07-12T03:11:01.088Z,36.63
2018-07-12T03:13:28.331Z,34.53
2018-07-12T03:15:55.579Z,33.87
2018-07-12T03:18:22.854Z,29.90
2018-07-12T03:20:50.083Z,28.43
2018-07-12T03:23:17.455Z,29.07
2018-07-12T03:25:44.718Z,29.47
2018-07-12T03:28:12.162Z,32.60
2018-07-12T03:30:39.553Z,29.37
2018-07-12T03:33:06.783Z,28.70
2018-07-12T03:35:34.033Z,30.80
2018-07-12T03:38:01.257Z,33.77
2018-07-12T03:40:28.483Z,33.67
2018-07-12T03:42:55.720Z,31.57
2018-07-12T03:45:22.945Z,30.50
2018-07-12T03:47:50.185Z,32.73
2018-07-12T03:50:17.394Z,33.53
2018-07-12T03:52:44.652Z,36.00
2018-07-12T03:55:11.894Z,36.10
2018-07-12T03:57:39.147Z,35.30
2018-07-12T04:00:06.393Z,39.40
2018-07-12T04:02:33.588Z,42.20
2018-07-12T04:05:00.844Z,39.70
2018-07-12T04:07:28.908Z,43.30
2018-07-12T04:09:56.378Z,40.20
2018-07-12T04:12:23.580Z,41.17
2018-07-12T04:14:50.803Z,40.80
2018-07-12T04:17:33.454Z,42.90
2018-07-12T04:20:01.995Z,40.50
2018-07-12T04:22:30.507Z,40.90
2018-07-12T04:24:57.737Z,40.90
2018-07-12T04:27:25.281Z,39.93
2018-07-12T04:29:54.543Z,42.77
2018-07-12T04:32:21.755Z,44.27
2018-07-12T04:34:49.569Z,40.03
2018-07-12T04:37:17.025Z,37.90
2018-07-12T04:39:44.417Z,35.53
2018-07-12T04:42:11.634Z,34.13
2018-07-12T04:44:38.886Z,34.70
2018-07-12T04:47:06.119Z,36.63
2018-07-12T04:49:34.335Z,37.30
2018-07-12T04:52:01.884Z,28.07
2018-07-12T04:54:29.445Z,24.87
2018-07-12T04:56:56.639Z,26.63
2018-07-12T04:59:23.919Z,26.87
2018-07-12T05:01:51.168Z,26.47
2018-07-12T05:04:18.418Z,30.13
2018-07-12T05:06:45.651Z,28.30
2018-07-12T05:09:12.855Z,30.53
2018-07-12T05:11:40.079Z,28.73
2018-07-12T05:14:07.286Z,28.17
2018-07-12T05:16:34.517Z,30.07
2018-07-12T05:19:01.739Z,27.07
2018-07-12T05:21:29.214Z,24.25
2018-07-12T05:23:56.426Z,22.13
2018-07-12T05:26:23.626Z,19.10
2018-07-12T05:28:50.863Z,17.80
2018-07-12T05:31:18.097Z,20.68
2018-07-12T05:33:45.355Z,20.82
2018-07-12T05:36:42.525Z,19.62
2018-07-12T05:39:10.785Z,21.33
2018-07-12T05:41:39.014Z,21.93
2018-07-12T05:44:07.435Z,21.70
2018-07-12T05:46:35.760Z,20.57
2018-07-12T05:49:03.975Z,20.68
2018-07-12T05:51:32.220Z,21.70
2018-07-12T05:54:00.524Z,21.75
2018-07-12T05:56:28.811Z,18.45
2018-07-12T05:58:57.106Z,16.40
2018-07-12T06:01:37.272Z,15.43
2018-07-12T06:04:05.695Z,13.45
2018-07-12T06:06:33.924Z,13.15
2018-07-12T06:09:02.192Z,11.93
2018-07-12T06:11:30.439Z,11.57
2018-07-12T06:13:58.676Z,11.70
2018-07-12T06:16:26.891Z,12.03
2018-07-12T06:18:55.227Z,11.50
2018-07-12T06:21:23.460Z,12.82
2018-07-12T06:23:53.259Z,11.18
2018-07-12T06:26:21.546Z,13.30
2018-07-12T06:28:49.776Z,11.90
2018-07-12T06:31:18.132Z,13.15
2018-07-12T06:33:46.383Z,12.37
2018-07-12T06:36:14.643Z,11.73
2018-07-12T06:38:43.021Z,13.80
2018-07-12T06:41:11.395Z,12.18
2018-07-12T06:43:39.792Z,12.80
2018-07-12T06:46:08.445Z,13.80
2018-07-12T06:48:36.909Z,12.13
2018-07-12T06:51:05.256Z,12.33
2018-07-12T06:53:33.627Z,12.98
2018-07-12T06:56:01.931Z,15.05
2018-07-12T06:58:30.230Z,15.20
2018-07-12T07:00:58.695Z,13.53
2018-07-12T07:03:26.980Z,13.62
2018-07-12T07:05:56.145Z,12.98
2018-07-12T07:08:24.373Z,13.10
2018-07-12T07:10:52.661Z,12.35
2018-07-12T07:13:20.926Z,12.47
2018-07-12T07:15:49.183Z,12.10
2018-07-12T07:18:17.487Z,10.45
2018-07-12T07:20:45.760Z,7.58
2018-07-12T07:23:13.991Z,7.97
2018-07-12T07:25:42.302Z,7.95
2018-07-12T07:28:10.559Z,5.83
2018-07-12T07:30:40.706Z,4.97
2018-07-12T07:33:09.343Z,7.25
2018-07-12T07:35:37.918Z,6.75
2018-07-12T07:38:06.161Z,7.35
2018-07-12T07:40:34.582Z,6.12
2018-07-12T07:43:02.929Z,7.78
2018-07-12T07:45:31.110Z,6.42
2018-07-12T07:47:59.363Z,5.65
2018-07-12T07:53:26.823Z,7.03
2018-07-12T07:55:55.056Z,6.12
2018-07-12T07:58:23.331Z,5.87
2018-07-12T08:00:51.547Z,5.97
2018-07-12T08:03:19.800Z,4.67
2018-07-12T08:05:48.019Z,5.22
2018-07-12T08:08:16.283Z,6.10
2018-07-12T08:10:44.783Z,5.45
2018-07-12T08:13:13.242Z,4.08
2018-07-12T08:15:41.895Z,3.85
2018-07-12T08:18:13.219Z,3.90
2018-07-12T08:20:41.828Z,4.75
2018-07-12T08:23:10.522Z,5.20
2018-07-12T08:25:39.168Z,6.70
2018-07-12T08:28:20.183Z,6.78
2018-07-12T08:30:48.432Z,7.28
2018-07-12T08:33:16.858Z,7.35
2018-07-12T08:35:45.133Z,6.75
2018-07-12T08:38:13.475Z,7.03
2018-07-12T08:40:42.631Z,6.25
2018-07-12T08:43:12.167Z,5.85
2018-07-12T08:45:40.429Z,5.65
2018-07-12T08:48:08.712Z,6.10
2018-07-12T08:50:37.028Z,6.12
2018-07-12T08:53:05.649Z,6.00
2018-07-12T08:55:33.842Z,6.20
2018-07-12T08:58:02.818Z,5.10
2018-07-12T09:00:32.775Z,5.45
2018-07-12T09:03:00.999Z,5.05
2018-07-12T09:05:29.580Z,4.90
2018-07-12T09:07:57.890Z,5.50
2018-07-12T09:10:26.306Z,4.28
2018-07-12T09:12:54.710Z,4.90
2018-07-12T09:15:23.557Z,3.77
2018-07-12T09:17:51.963Z,3.62
2018-07-12T09:20:20.335Z,4.58
2018-07-12T09:22:48.762Z,3.58
2018-07-12T09:25:17.746Z,3.70
2018-07-12T09:27:46.094Z,2.55
2018-07-12T09:30:14.480Z,2.50
2018-07-12T09:32:43.223Z,3.00
2018-07-12T09:35:12.055Z,3.87
2018-07-12T09:37:40.455Z,4.17
2018-07-12T09:40:08.747Z,4.15
2018-07-12T09:42:37.598Z,3.90
2018-07-12T09:45:05.959Z,3.37
2018-07-12T09:47:34.315Z,2.45
2018-07-12T09:50:02.761Z,2.37
2018-07-12T09:52:33.294Z,2.67
2018-07-12T09:55:02.439Z,2.50
2018-07-12T09:57:42.671Z,2.50
2018-07-12T10:00:10.946Z,2.60
2018-07-12T10:02:44.568Z,3.10
2018-07-12T10:05:18.392Z,2.52
2018-07-12T10:07:50.568Z,2.60
2018-07-12T10:10:19.707Z,3.12
2018-07-12T10:12:53.726Z,2.60
2018-07-12T10:15:27.324Z,3.22
2018-07-12T10:18:01.140Z,2.08
2018-07-12T10:20:29.356Z,2.25
2018-07-12T10:22:57.574Z,2.67
2018-07-12T10:25:26.037Z,2.60
2018-07-12T10:27:54.245Z,2.05
2018-07-12T10:30:22.483Z,1.70
2018-07-12T10:32:50.956Z,1.80
2018-07-12T10:35:19.212Z,1.55
2018-07-12T10:37:47.447Z,1.77
2018-07-12T10:40:15.661Z,1.50
2018-07-12T10:42:43.910Z,1.50
2018-07-12T10:45:12.484Z,1.98
2018-07-12T10:47:40.763Z,2.17
2018-07-12T10:50:09.351Z,2.37
2018-07-12T10:52:37.555Z,2.75
2018-07-12T10:55:06.711Z,2.02
2018-07-12T10:57:34.900Z,1.80
2018-07-12T11:00:03.217Z,1.50
2018-07-12T11:02:31.527Z,1.55
2018-07-12T11:04:59.739Z,1.80
2018-07-12T11:07:27.940Z,2.35
2018-07-12T11:09:56.172Z,2.12
2018-07-12T11:12:24.379Z,2.00
2018-07-12T11:14:52.827Z,2.05
2018-07-12T11:17:21.103Z,2.15
2018-07-12T11:19:49.378Z,1.60
2018-07-12T11:22:17.755Z,1.62
2018-07-12T11:24:46.029Z,1.82
2018-07-12T11:27:14.375Z,1.52
2018-07-12T11:29:54.521Z,1.82
2018-07-12T11:32:22.759Z,1.72
2018-07-12T11:34:51.400Z,1.70
2018-07-12T11:37:23.059Z,2.10
2018-07-12T11:39:51.755Z,1.60
2018-07-12T11:42:20.311Z,1.80
2018-07-12T11:44:49.577Z,1.60
2018-07-12T11:47:19.114Z,1.50
2018-07-12T11:49:47.427Z,1.67
2018-07-12T11:52:16.051Z,1.55
2018-07-12T11:54:44.375Z,1.57
2018-07-12T11:57:12.671Z,1.50
2018-07-12T11:59:41.034Z,1.57
2018-07-12T12:02:09.291Z,1.35
2018-07-12T12:04:37.528Z,1.72
2018-07-12T12:07:05.774Z,1.50
2018-07-12T12:09:34.255Z,1.70
2018-07-12T12:12:02.447Z,1.85
2018-07-12T12:14:30.663Z,1.22
2018-07-12T12:16:59.287Z,1.80
2018-07-12T12:19:58.265Z,1.70
2018-07-12T12:22:26.511Z,1.65
2018-07-12T12:24:54.882Z,1.30
2018-07-12T12:27:23.101Z,1.40
2018-07-12T12:29:51.426Z,1.37
2018-07-12T12:32:19.831Z,1.40
2018-07-12T12:34:48.007Z,1.42
2018-07-12T12:37:16.275Z,1.40
2018-07-12T12:39:44.631Z,1.40
2018-07-12T12:42:12.878Z,1.60
2018-07-12T12:44:41.202Z,1.90
2018-07-12T12:47:09.505Z,1.60
2018-07-12T12:49:37.750Z,1.70
2018-07-12T12:52:06.087Z,1.60
2018-07-12T12:54:34.362Z,1.60
2018-07-12T12:57:02.607Z,1.72
2018-07-12T12:59:32.657Z,1.70
2018-07-12T13:02:01.133Z,1.47
2018-07-12T13:04:29.591Z,1.70
2018-07-12T13:06:57.691Z,1.42
2018-07-12T13:09:26.129Z,1.50
2018-07-12T13:11:54.364Z,1.60
2018-07-12T13:14:22.637Z,1.30
2018-07-12T13:16:51.276Z,1.35
2018-07-12T13:19:19.505Z,1.72
2018-07-12T13:21:47.811Z,1.70
2018-07-12T13:24:16.135Z,1.60
2018-07-12T13:26:44.370Z,1.70
2018-07-12T13:29:12.628Z,1.60
2018-07-12T13:31:41.474Z,2.00
2018-07-12T13:34:09.975Z,1.67
2018-07-12T13:36:38.953Z,1.60
2018-07-12T13:39:08.115Z,1.30
2018-07-12T13:41:36.636Z,1.47
2018-07-12T13:44:18.593Z,1.30
2018-07-12T13:46:47.842Z,1.52
2018-07-12T13:49:16.188Z,1.40
2018-07-12T13:51:46.176Z,1.67
2018-07-12T13:54:14.391Z,1.40
2018-07-12T13:56:42.731Z,1.70
2018-07-12T13:59:11.316Z,1.70
2018-07-12T14:01:39.599Z,1.30
2018-07-12T14:04:09.857Z,1.60
2018-07-12T14:06:38.208Z,1.37
2018-07-12T14:09:08.843Z,1.72
2018-07-12T14:11:37.167Z,1.47
2018-07-12T14:14:06.805Z,1.70
2018-07-12T14:16:35.036Z,1.60
2018-07-12T14:19:03.339Z,1.20
2018-07-12T14:21:31.612Z,1.45
2018-07-12T14:23:59.908Z,1.30
2018-07-12T14:26:28.148Z,1.57
2018-07-12T14:28:56.375Z,1.20
2018-07-12T14:31:24.594Z,1.40
2018-07-12T14:33:53.319Z,1.35
2018-07-12T14:36:21.542Z,1.40
2018-07-12T14:38:49.736Z,1.70
2018-07-12T14:41:17.955Z,1.62
2018-07-12T14:43:46.214Z,1.60
2018-07-12T14:46:15.039Z,1.72
2018-07-12T14:48:43.338Z,1.22
2018-07-12T14:51:11.588Z,1.40
2018-07-12T14:53:39.783Z,1.50
2018-07-12T14:56:07.991Z,1.42
2018-07-12T14:58:36.691Z,1.50
2018-07-12T15:01:04.872Z,1.40
2018-07-12T15:03:33.166Z,1.50
2018-07-12T15:06:01.445Z,1.80
2018-07-12T15:08:29.640Z,1.52
2018-07-12T15:10:58.195Z,1.40
2018-07-12T15:13:26.748Z,1.60
2018-07-12T15:15:55.080Z,1.47
2018-07-12T15:18:23.283Z,1.20
2018-07-12T15:20:51.628Z,1.30
2018-07-12T15:23:19.916Z,1.30
2018-07-12T15:25:48.180Z,1.40
2018-07-12T15:28:16.421Z,1.27
2018-07-12T15:30:44.714Z,1.40
2018-07-12T15:33:13.000Z,1.30
2018-07-12T15:35:41.250Z,1.70
2018-07-12T15:38:09.967Z,1.40
2018-07-12T15:40:38.288Z,1.40
2018-07-12T15:43:06.540Z,1.30
2018-07-12T15:45:36.696Z,1.40
2018-07-12T15:48:04.929Z,1.42
2018-07-12T15:50:33.144Z,1.60
2018-07-12T15:53:01.438Z,1.40
2018-07-12T15:55:29.652Z,1.37
2018-07-12T15:57:57.929Z,1.35
2018-07-12T16:00:26.193Z,1.60
2018-07-12T16:02:54.505Z,1.22
2018-07-12T16:05:22.752Z,1.45
2018-07-12T16:07:51.001Z,1.60
2018-07-12T16:10:19.332Z,1.50
2018-07-12T16:12:47.551Z,1.30
2018-07-12T16:15:15.927Z,1.55
2018-07-12T16:17:44.195Z,1.20
2018-07-12T16:20:12.455Z,1.40
2018-07-12T16:22:40.704Z,1.98
2018-07-12T16:25:09.024Z,1.50
2018-07-12T16:27:37.244Z,1.30
2018-07-12T16:30:05.943Z,1.40
2018-07-12T16:32:34.120Z,1.35
2018-07-12T16:35:02.690Z,1.60
2018-07-12T16:37:30.912Z,1.15
2018-07-12T16:39:59.099Z,1.60
2018-07-12T16:42:27.402Z,1.60
2018-07-12T16:44:55.591Z,1.40
2018-07-12T16:47:23.851Z,1.77
2018-07-12T16:49:52.154Z,1.50
2018-07-12T16:52:20.330Z,1.40
2018-07-12T16:54:50.504Z,1.75
2018-07-12T16:57:18.822Z,1.95
2018-07-12T16:59:47.090Z,1.60
2018-07-12T17:02:15.345Z,1.55
2018-07-12T17:04:43.578Z,1.70
2018-07-12T17:07:11.883Z,1.82
2018-07-12T17:09:40.116Z,1.80
2018-07-12T17:12:08.368Z,1.90
2018-07-12T17:14:36.692Z,1.85
2018-07-12T17:17:04.920Z,1.60
2018-07-12T17:19:33.203Z,1.72
2018-07-12T17:22:01.344Z,1.72
2018-07-12T17:24:29.863Z,1.85
2018-07-12T17:26:58.316Z,1.70
2018-07-12T17:29:26.508Z,1.85
2018-07-12T17:31:54.763Z,2.25
2018-07-12T17:34:22.987Z,2.15
2018-07-12T17:36:51.375Z,2.40
2018-07-12T17:39:19.977Z,2.00
2018-07-12T17:41:48.201Z,2.00
2018-07-12T17:44:16.403Z,2.20
2018-07-12T17:46:44.679Z,2.20
2018-07-12T17:49:12.911Z,1.77
2018-07-12T17:51:41.580Z,2.10
2018-07-12T17:54:09.814Z,2.00
2018-07-12T17:56:38.591Z,2.25
2018-07-12T17:59:07.107Z,2.08
2018-07-12T18:01:35.999Z,2.15
2018-07-12T18:04:04.305Z,1.90
2018-07-12T18:06:34.250Z,2.12
2018-07-12T18:09:02.813Z,1.92
2018-07-12T18:11:32.617Z,1.87
2018-07-12T18:14:00.895Z,2.25
2018-07-12T18:16:29.194Z,2.52
2018-07-12T18:18:57.458Z,2.10
2018-07-12T18:21:25.716Z,1.92
2018-07-12T18:23:54.352Z,2.00
2018-07-12T18:26:22.555Z,2.12
2018-07-12T18:28:50.811Z,2.00
2018-07-12T18:31:19.156Z,1.90
2018-07-12T18:33:47.400Z,1.95
2018-07-12T18:36:15.694Z,1.80
2018-07-12T18:38:43.954Z,2.33
2018-07-12T18:41:11.924Z,1.87
2018-07-12T18:43:40.701Z,2.17
2018-07-12T18:46:08.857Z,2.00
2018-07-12T18:48:37.303Z,2.00
2018-07-12T18:51:06.435Z,2.35
2018-07-12T18:53:34.727Z,2.60
2018-07-12T18:56:03.298Z,2.20
2018-07-12T18:58:31.636Z,2.50
2018-07-12T19:00:59.907Z,2.47
2018-07-12T19:03:28.179Z,2.80
2018-07-12T19:05:56.813Z,2.70
2018-07-12T19:08:25.496Z,2.80
2018-07-12T19:10:53.764Z,3.37
2018-07-12T19:13:22.139Z,3.20
2018-07-12T19:15:50.691Z,3.75
2018-07-12T19:18:19.004Z,4.28
2018-07-12T19:20:48.177Z,4.95
2018-07-12T19:23:16.683Z,4.78
2018-07-12T19:25:44.999Z,4.55
2018-07-12T19:28:13.261Z,5.60
2018-07-12T19:30:41.529Z,5.20
2018-07-12T19:33:09.790Z,5.55
2018-07-12T19:35:38.109Z,6.22
2018-07-12T19:38:06.439Z,5.65
2018-07-12T19:40:35.029Z,5.40
2018-07-12T19:43:04.904Z,6.53
2018-07-12T19:45:34.072Z,5.87
2018-07-12T19:48:02.431Z,5.72
2018-07-12T19:50:30.903Z,4.35
2018-07-12T19:52:59.365Z,4.83
2018-07-12T19:55:27.674Z,4.85
2018-07-12T19:57:55.943Z,4.35
2018-07-12T20:00:25.288Z,4.70
2018-07-12T20:02:53.558Z,4.28
2018-07-12T20:05:22.042Z,4.97
2018-07-12T20:07:50.320Z,4.60
2018-07-12T20:10:18.672Z,4.42
2018-07-12T20:12:46.945Z,4.90
2018-07-12T20:15:15.276Z,4.12
2018-07-12T20:17:43.600Z,4.40
2018-07-12T20:20:11.831Z,5.40
2018-07-12T20:22:40.254Z,5.15
2018-07-12T20:25:08.229Z,5.05
2018-07-12T20:27:36.525Z,4.95
2018-07-12T20:30:05.207Z,5.20
2018-07-12T20:32:33.447Z,5.12
2018-07-12T20:35:01.785Z,4.85
2018-07-12T20:37:30.192Z,5.08
2018-07-12T20:39:58.497Z,5.22
2018-07-12T20:42:26.753Z,5.30
2018-07-12T20:44:55.102Z,5.35
2018-07-12T20:47:23.596Z,5.60
2018-07-12T20:49:52.560Z,5.58
2018-07-12T20:52:20.812Z,5.25
2018-07-12T20:54:49.105Z,6.45
2018-07-12T20:57:17.637Z,5.42
2018-07-12T20:59:45.870Z,5.17
2018-07-12T21:02:14.131Z,5.03
2018-07-12T21:04:42.370Z,5.40
2018-07-12T21:07:10.618Z,5.05
2018-07-12T21:09:38.913Z,4.95
2018-07-12T21:12:07.307Z,5.22
2018-07-12T21:14:35.638Z,5.20
2018-07-12T21:17:04.326Z,4.80
2018-07-12T21:19:32.629Z,5.30
2018-07-12T21:22:01.713Z,5.15
2018-07-12T21:24:29.947Z,5.30
2018-07-12T21:26:58.250Z,5.47
2018-07-12T21:29:26.539Z,5.45
2018-07-12T21:31:54.752Z,5.28
2018-07-12T21:34:22.947Z,4.92
2018-07-12T21:36:51.243Z,4.87
2018-07-12T21:39:19.557Z,5.05
2018-07-12T21:41:47.892Z,5.50
2018-07-12T21:44:16.228Z,5.30
2018-07-12T21:46:45.298Z,5.22
2018-07-12T21:49:13.635Z,5.47
2018-07-12T21:51:43.012Z,5.35
2018-07-12T21:54:11.712Z,5.70
2018-07-12T21:56:45.240Z,5.72
2018-07-12T21:59:13.635Z,5.53
2018-07-12T22:01:42.701Z,5.80
2018-07-12T22:04:10.953Z,5.10
2018-07-12T22:11:03.458Z,5.47
2018-07-12T22:13:32.617Z,6.50
2018-07-12T22:16:00.864Z,6.33
2018-07-12T22:18:29.158Z,6.20
2018-07-12T22:20:57.427Z,6.95
2018-07-12T22:23:25.677Z,6.10
2018-07-12T22:25:54.254Z,6.10
2018-07-12T22:28:22.415Z,6.12
2018-07-12T22:30:50.632Z,5.62
2018-07-12T22:33:18.829Z,5.53
2018-07-12T22:35:47.163Z,6.55
2018-07-12T22:38:15.800Z,6.33
2018-07-12T22:40:44.000Z,6.23
2018-07-12T22:43:12.243Z,6.50
2018-07-12T22:45:40.428Z,6.23
2018-07-12T22:48:08.689Z,6.13
2018-07-12T22:50:36.829Z,6.73
2018-07-12T22:53:05.144Z,7.07
2018-07-12T22:55:33.392Z,7.70
2018-07-12T22:58:01.624Z,6.90
2018-07-12T23:00:29.908Z,6.80
2018-07-12T23:02:58.144Z,6.90
2018-07-12T23:05:26.456Z,7.20
2018-07-12T23:07:54.695Z,8.17
2018-07-12T23:10:23.649Z,8.23
2018-07-12T23:12:51.863Z,7.73
2018-07-12T23:15:20.112Z,7.70
2018-07-12T23:17:48.740Z,7.70
2018-07-12T23:20:16.924Z,8.13
2018-07-12T23:22:45.152Z,8.20
2018-07-12T23:25:13.393Z,8.43
2018-07-12T23:27:41.601Z,8.90
2018-07-12T23:30:09.870Z,8.70
2018-07-12T23:32:38.108Z,7.87
2018-07-12T23:35:06.303Z,8.30
2018-07-12T23:37:34.845Z,8.50
2018-07-12T23:40:03.154Z,8.30
2018-07-12T23:42:31.980Z,8.20
2018-07-12T23:45:00.199Z,8.20
2018-07-12T23:47:28.424Z,8.87
2018-07-12T23:49:56.641Z,9.47
2018-07-12T23:52:25.521Z,8.97
2018-07-12T23:54:53.986Z,9.53
2018-07-12T23:57:22.223Z,8.83
2018-07-12T23:59:50.423Z,8.23
